createdAt,value
2018-08-06T03:17:19.363Z,1004.80
2018-08-06T03:18:19.325Z,1004.75
2018-08-06T03:19:19.342Z,1004.78
2018-08-06T03:20:19.339Z,1004.77
2018-08-06T03:21:19.340Z,1004.72
2018-08-06T03:22:19.344Z,1004.70
2018-08-06T03:23:19.337Z,1004.70
2018-08-06T03:24:19.338Z,1004.72
2018-08-06T03:25:19.364Z,1004.67
2018-08-06T03:26:19.346Z,1004.69
2018-08-06T03:27:19.356Z,1004.69
2018-08-06T03:28:19.347Z,1004.68
2018-08-06T03:29:19.364Z,1004.74
2018-08-06T03:30:19.377Z,1004.73
2018-08-06T03:31:19.344Z,1004.75
2018-08-06T03:32:19.348Z,1004.75
2018-08-06T03:33:19.359Z,1004.72
2018-08-06T03:34:19.354Z,1004.73
2018-08-06T03:35:19.360Z,1004.77
2018-08-06T03:36:19.365Z,1004.74
2018-08-06T03:37:19.377Z,1004.74
2018-08-06T03:38:19.367Z,1004.71
2018-08-06T03:39:19.371Z,1004.74
2018-08-06T03:40:19.452Z,1004.78
2018-08-06T03:41:19.369Z,1004.76
2018-08-06T03:42:19.386Z,1004.80
2018-08-06T03:43:19.384Z,1004.78
2018-08-06T03:44:19.425Z,1004.84
2018-08-06T03:45:19.443Z,1004.79
2018-08-06T03:46:19.413Z,1004.79
2018-08-06T03:47:19.393Z,1004.82
2018-08-06T03:48:19.425Z,1004.78
2018-08-06T03:49:19.437Z,1004.75
2018-08-06T03:50:19.415Z,1004.76
2018-08-06T03:51:19.402Z,1004.77
2018-08-06T03:52:19.471Z,1004.81
2018-08-06T03:53:19.409Z,1004.81
2018-08-06T03:54:19.429Z,1004.78
2018-08-06T03:55:19.421Z,1004.84
2018-08-06T03:56:19.419Z,1004.80
2018-08-06T03:57:19.427Z,1004.78
2018-08-06T03:58:19.430Z,1004.78
2018-08-06T03:59:19.452Z,1004.77
2018-08-06T04:00:19.444Z,1004.77
2018-08-06T04:01:19.459Z,1004.77
2018-08-06T04:02:19.465Z,1004.81
2018-08-06T04:03:19.452Z,1004.81
2018-08-06T04:04:19.487Z,1004.81
2018-08-06T04:05:19.456Z,1004.81
2018-08-06T04:06:19.493Z,1004.86
2018-08-06T04:07:19.510Z,1004.87
2018-08-06T04:08:19.471Z,1004.87
2018-08-06T04:09:19.471Z,1004.89
2018-08-06T04:10:19.467Z,1004.88
2018-08-06T04:11:19.514Z,1004.85
2018-08-06T04:12:19.474Z,1004.84
2018-08-06T04:13:19.482Z,1004.89
2018-08-06T04:14:19.515Z,1004.84
2018-08-06T04:15:19.481Z,1004.83
2018-08-06T04:16:19.481Z,1004.85
2018-08-06T04:17:19.500Z,1004.89
2018-08-06T04:18:19.515Z,1004.87
2018-08-06T04:19:19.494Z,1004.87
2018-08-06T04:20:19.581Z,1004.88
2018-08-06T04:21:19.531Z,1004.89
2018-08-06T04:22:19.530Z,1004.92
2018-08-06T04:23:19.536Z,1004.88
2018-08-06T04:24:19.531Z,1004.92
2018-08-06T04:25:19.549Z,1004.90
2018-08-06T04:26:19.556Z,1004.92
2018-08-06T04:27:19.520Z,1004.91
2018-08-06T04:28:19.529Z,1004.90
2018-08-06T04:29:19.589Z,1004.95
2018-08-06T04:30:19.549Z,1004.93
2018-08-06T04:31:19.554Z,1004.96
2018-08-06T04:32:19.539Z,1004.96
2018-08-06T04:33:19.588Z,1004.96
2018-08-06T04:34:19.548Z,1004.94
2018-08-06T04:35:19.566Z,1004.97
2018-08-06T04:36:19.548Z,1005.01
2018-08-06T04:37:19.554Z,1004.99
2018-08-06T04:38:19.566Z,1005.00
2018-08-06T04:39:19.622Z,1004.98
2018-08-06T04:40:19.617Z,1005.02
2018-08-06T04:41:19.589Z,1005.02
2018-08-06T04:42:19.573Z,1005.06
2018-08-06T04:43:19.580Z,1005.06
2018-08-06T04:44:19.593Z,1005.07
2018-08-06T04:45:19.586Z,1005.01
2018-08-06T04:46:19.608Z,1005.06
2018-08-06T04:47:19.592Z,1005.05
2018-08-06T04:48:19.605Z,1005.08
2018-08-06T04:49:19.626Z,1005.13
2018-08-06T04:50:19.612Z,1005.12
2018-08-06T04:51:19.615Z,1005.12
2018-08-06T04:52:19.638Z,1005.12
2018-08-06T04:53:19.669Z,1005.14
2018-08-06T04:54:19.660Z,1005.15
2018-08-06T04:55:19.643Z,1005.13
2018-08-06T04:56:19.703Z,1005.17
2018-08-06T04:57:19.739Z,1005.22
2018-08-06T04:58:19.678Z,1005.22
2018-08-06T04:59:19.673Z,1005.25
2018-08-06T05:00:19.708Z,1005.22
2018-08-06T05:01:19.690Z,1005.20
2018-08-06T05:02:19.708Z,1005.27
2018-08-06T05:03:19.717Z,1005.26
2018-08-06T05:04:19.748Z,1005.28
2018-08-06T05:05:19.760Z,1005.29
2018-08-06T05:06:19.741Z,1005.32
2018-08-06T05:07:19.756Z,1005.33
2018-08-06T05:08:19.790Z,1005.28
2018-08-06T05:09:19.793Z,1005.30
2018-08-06T05:10:19.784Z,1005.29
2018-08-06T05:11:19.805Z,1005.32
2018-08-06T05:12:19.820Z,1005.32
2018-08-06T05:13:19.813Z,1005.33
2018-08-06T05:14:19.840Z,1005.31
2018-08-06T05:15:19.845Z,1005.28
2018-08-06T05:16:19.868Z,1005.27
2018-08-06T05:17:19.896Z,1005.27
2018-08-06T05:18:19.894Z,1005.31
2018-08-06T05:19:19.928Z,1005.34
2018-08-06T05:20:19.938Z,1005.32
2018-08-06T05:21:28.532Z,1005.38
2018-08-06T05:23:23.397Z,1005.41
2018-08-06T05:24:14.632Z,1005.39
2018-08-06T05:25:14.576Z,1005.38
2018-08-06T05:26:14.579Z,1005.41
2018-08-06T05:28:36.726Z,1005.42
2018-08-06T05:29:47.170Z,1005.41
2018-08-06T05:31:30.138Z,1005.43
2018-08-06T05:32:30.136Z,1005.46
2018-08-06T05:33:30.159Z,1005.48
2018-08-06T05:34:30.137Z,1005.44
2018-08-06T05:35:30.176Z,1005.48
2018-08-06T05:36:30.185Z,1005.45
2018-08-06T05:37:30.218Z,1005.46
2018-08-06T05:38:30.224Z,1005.44
2018-08-06T05:39:30.244Z,1005.45
2018-08-06T05:40:30.293Z,1005.48
2018-08-06T05:41:30.288Z,1005.49
2018-08-06T05:42:30.293Z,1005.44
2018-08-06T05:43:30.310Z,1005.40
2018-08-06T05:44:30.317Z,1005.42
2018-08-06T05:45:30.309Z,1005.38
2018-08-06T05:46:30.336Z,1005.35
2018-08-06T05:47:30.372Z,1005.36
2018-08-06T05:48:30.408Z,1005.40
2018-08-06T05:49:30.386Z,1005.36
2018-08-06T05:50:30.436Z,1005.39
2018-08-06T05:51:30.427Z,1005.47
2018-08-06T05:52:30.429Z,1005.41
2018-08-06T05:53:30.483Z,1005.47
2018-08-06T05:54:30.476Z,1005.48
2018-08-06T05:55:30.509Z,1005.56
2018-08-06T05:56:30.510Z,1005.48
2018-08-06T05:57:30.552Z,1005.64
2018-08-06T05:58:30.526Z,1005.60
2018-08-06T05:59:30.569Z,1005.69
2018-08-06T06:00:30.567Z,1005.67
2018-08-06T06:01:30.583Z,1005.89
2018-08-06T06:02:39.257Z,1005.95
2018-08-06T06:04:31.800Z,1006.05
2018-08-06T06:05:31.746Z,1006.14
2018-08-06T06:06:32.781Z,1006.20
2018-08-06T06:08:25.386Z,1006.47
2018-08-06T06:09:25.431Z,1005.91
2018-08-06T06:10:17.749Z,1005.46
2018-08-06T06:11:17.773Z,1005.37
2018-08-06T06:12:17.768Z,1005.26
2018-08-06T06:13:17.812Z,1005.26
2018-08-06T06:15:47.942Z,1005.22
2018-08-06T06:16:38.912Z,1005.20
2018-08-06T06:19:10.057Z,1005.22
2018-08-06T06:20:09.637Z,1005.24
2018-08-06T06:21:55.456Z,1005.21
2018-08-06T06:22:55.439Z,1005.20
2018-08-06T06:23:55.562Z,1005.22
2018-08-06T06:24:55.399Z,1005.18
2018-08-06T06:25:55.534Z,1005.21
2018-08-06T06:26:55.405Z,1005.19
2018-08-06T06:27:55.439Z,1005.19
2018-08-06T06:28:55.459Z,1005.15
2018-08-06T06:29:55.496Z,1005.17
2018-08-06T06:30:55.499Z,1005.12
2018-08-06T06:31:55.490Z,1005.20
2018-08-06T06:32:55.485Z,1005.14
2018-08-06T06:33:55.489Z,1005.09
2018-08-06T06:34:55.522Z,1005.12
2018-08-06T06:35:55.500Z,1005.20
2018-08-06T06:36:55.521Z,1005.10
2018-08-06T06:37:55.567Z,1005.06
2018-08-06T06:38:55.511Z,1005.08
2018-08-06T06:39:55.529Z,1005.07
2018-08-06T06:40:55.565Z,1005.08
2018-08-06T06:41:55.555Z,1005.06
2018-08-06T06:42:55.542Z,1005.06
2018-08-06T06:43:55.543Z,1005.07
2018-08-06T06:44:55.600Z,1005.04
2018-08-06T06:45:55.582Z,1005.01
2018-08-06T06:46:55.575Z,1005.06
2018-08-06T06:47:55.626Z,1005.06
2018-08-06T06:48:55.689Z,1005.07
2018-08-06T06:49:55.610Z,1005.02
2018-08-06T06:50:55.603Z,1005.02
2018-08-06T06:51:55.594Z,1004.99
2018-08-06T06:52:55.680Z,1005.00
2018-08-06T06:53:55.629Z,1004.95
2018-08-06T06:54:55.645Z,1004.96
2018-08-06T06:55:55.640Z,1004.98
2018-08-06T06:56:55.623Z,1005.00
2018-08-06T06:57:55.637Z,1005.04
2018-08-06T06:58:55.640Z,1004.99
2018-08-06T06:59:55.705Z,1004.90
2018-08-06T07:00:55.686Z,1004.98
2018-08-06T07:01:55.652Z,1004.96
2018-08-06T07:02:55.675Z,1004.92
2018-08-06T07:03:55.697Z,1004.90
2018-08-06T07:04:55.702Z,1004.93
2018-08-06T07:05:55.691Z,1004.92
2018-08-06T07:06:55.714Z,1004.94
2018-08-06T07:07:55.722Z,1004.98
2018-08-06T07:08:55.717Z,1004.92
2018-08-06T07:09:55.710Z,1004.91
2018-08-06T07:10:55.745Z,1004.92
2018-08-06T07:11:55.724Z,1004.87
2018-08-06T07:12:55.719Z,1004.93
2018-08-06T07:13:55.924Z,1004.86
2018-08-06T07:14:55.741Z,1004.88
2018-08-06T07:15:55.738Z,1004.84
2018-08-06T07:16:55.753Z,1004.85
2018-08-06T07:17:55.800Z,1004.86
2018-08-06T07:18:55.777Z,1004.84
2018-08-06T07:19:55.767Z,1004.88
2018-08-06T07:20:55.801Z,1004.88
2018-08-06T07:21:55.816Z,1004.87
2018-08-06T07:22:55.800Z,1004.84
2018-08-06T07:24:04.451Z,1004.85
2018-08-06T07:25:49.204Z,1004.79
2018-08-06T07:26:49.193Z,1004.78
2018-08-06T07:27:49.200Z,1004.77
2018-08-06T07:28:49.224Z,1004.76
2018-08-06T07:29:49.213Z,1004.75
2018-08-06T07:30:49.221Z,1004.73
2018-08-06T07:31:49.218Z,1004.73
2018-08-06T07:32:49.220Z,1004.74
2018-08-06T07:33:49.333Z,1004.73
2018-08-06T07:34:49.236Z,1004.71
2018-08-06T07:35:49.240Z,1004.71
2018-08-06T07:36:49.275Z,1004.76
2018-08-06T07:37:49.252Z,1004.75
2018-08-06T07:38:49.276Z,1004.78
2018-08-06T07:39:49.306Z,1004.74
2018-08-06T07:40:49.301Z,1004.76
2018-08-06T07:41:49.303Z,1004.71
2018-08-06T07:42:49.296Z,1004.77
2018-08-06T07:43:49.292Z,1004.79
2018-08-06T07:44:49.303Z,1004.70
2018-08-06T07:45:49.299Z,1004.77
2018-08-06T07:46:49.313Z,1004.71
2018-08-06T07:47:51.262Z,1004.75
2018-08-06T07:48:49.353Z,1004.75
2018-08-06T07:49:49.392Z,1004.71
2018-08-06T07:50:49.350Z,1004.75
2018-08-06T07:51:49.339Z,1004.71
2018-08-06T07:52:49.364Z,1004.76
2018-08-06T07:53:49.351Z,1004.70
2018-08-06T07:54:49.379Z,1004.73
2018-08-06T07:55:58.018Z,1004.67
2018-08-06T07:57:42.828Z,1004.69
2018-08-06T07:58:42.799Z,1004.70
2018-08-06T07:59:42.793Z,1004.69
2018-08-06T08:00:42.794Z,1004.66
2018-08-06T08:01:49.981Z,1004.65
2018-08-06T08:03:45.291Z,1004.64
2018-08-06T08:04:36.234Z,1004.60
2018-08-06T08:05:36.220Z,1004.63
2018-08-06T08:06:36.226Z,1004.58
2018-08-06T08:07:36.237Z,1004.60
2018-08-06T08:08:36.239Z,1004.58
2018-08-06T08:09:36.253Z,1004.61
2018-08-06T08:10:36.263Z,1004.63
2018-08-06T08:11:36.265Z,1004.59
2018-08-06T08:12:36.287Z,1004.61
2018-08-06T08:13:36.297Z,1004.55
2018-08-06T08:14:36.315Z,1004.56
2018-08-06T08:15:36.291Z,1004.51
2018-08-06T08:16:36.305Z,1004.54
2018-08-06T08:17:36.293Z,1004.53
2018-08-06T08:18:36.307Z,1004.51
2018-08-06T08:19:36.362Z,1004.50
2018-08-06T08:20:36.327Z,1004.46
2018-08-06T08:21:36.316Z,1004.49
2018-08-06T08:22:36.328Z,1004.48
2018-08-06T08:23:36.331Z,1004.43
2018-08-06T08:24:36.349Z,1004.46
2018-08-06T08:25:36.343Z,1004.43
2018-08-06T08:26:36.367Z,1004.43
2018-08-06T08:27:36.376Z,1004.51
2018-08-06T08:28:36.401Z,1004.51
2018-08-06T08:29:36.409Z,1004.48
2018-08-06T08:30:36.410Z,1004.50
2018-08-06T08:31:36.393Z,1004.53
2018-08-06T08:32:36.395Z,1004.49
2018-08-06T08:33:36.400Z,1004.45
2018-08-06T08:34:36.421Z,1004.50
2018-08-06T08:35:36.409Z,1004.46
2018-08-06T08:36:36.429Z,1004.53
2018-08-06T08:37:36.438Z,1004.48
2018-08-06T08:38:36.463Z,1004.47
2018-08-06T08:39:36.462Z,1004.48
2018-08-06T08:40:36.470Z,1004.51
2018-08-06T08:41:36.486Z,1004.47
2018-08-06T08:42:36.466Z,1004.42
2018-08-06T08:43:36.505Z,1004.39
2018-08-06T08:44:36.507Z,1004.40
2018-08-06T08:45:36.577Z,1004.36
2018-08-06T08:46:38.278Z,1004.39
2018-08-06T08:47:36.498Z,1004.39
2018-08-06T08:48:36.531Z,1004.39
2018-08-06T08:49:36.541Z,1004.35
2018-08-06T08:50:36.575Z,1004.36
2018-08-06T08:51:36.552Z,1004.34
2018-08-06T08:52:36.533Z,1004.35
2018-08-06T08:53:36.538Z,1004.30
2018-08-06T08:54:36.543Z,1004.30
2018-08-06T08:55:36.559Z,1004.28
2018-08-06T08:56:36.558Z,1004.24
2018-08-06T08:57:36.596Z,1004.25
2018-08-06T08:58:36.652Z,1004.25
2018-08-06T08:59:38.318Z,1004.25
2018-08-06T09:00:36.591Z,1004.18
2018-08-06T09:01:36.620Z,1004.29
2018-08-06T09:02:36.622Z,1004.19
2018-08-06T09:03:36.646Z,1004.26
2018-08-06T09:04:36.625Z,1004.23
2018-08-06T09:05:36.626Z,1004.19
2018-08-06T09:06:36.630Z,1004.21
2018-08-06T09:07:36.663Z,1004.19
2018-08-06T09:08:36.677Z,1004.16
2018-08-06T09:09:36.675Z,1004.15
2018-08-06T09:10:36.666Z,1004.15
2018-08-06T09:11:36.670Z,1004.15
2018-08-06T09:12:36.739Z,1004.12
2018-08-06T09:13:36.690Z,1004.11
2018-08-06T09:14:36.701Z,1004.11
2018-08-06T09:15:36.726Z,1004.10
2018-08-06T09:16:36.751Z,1004.13
2018-08-06T09:17:36.740Z,1004.07
2018-08-06T09:18:36.759Z,1004.05
2018-08-06T09:19:36.746Z,1004.07
2018-08-06T09:20:36.761Z,1004.10
2018-08-06T09:21:36.768Z,1004.03
2018-08-06T09:22:36.753Z,1004.10
2018-08-06T09:23:36.780Z,1004.09
2018-08-06T09:24:36.773Z,1004.06
2018-08-06T09:25:36.782Z,1004.08
2018-08-06T09:26:36.781Z,1004.07
2018-08-06T09:27:38.327Z,1004.01
2018-08-06T09:28:38.356Z,1003.99
2018-08-06T09:29:36.800Z,1003.94
2018-08-06T09:30:36.805Z,1003.99
2018-08-06T09:31:36.855Z,1003.91
2018-08-06T09:32:36.856Z,1003.95
2018-08-06T09:33:36.854Z,1003.90
2018-08-06T09:34:36.904Z,1003.96
2018-08-06T09:35:36.891Z,1003.88
2018-08-06T09:36:36.896Z,1003.88
2018-08-06T09:37:36.910Z,1003.87
2018-08-06T09:38:36.901Z,1003.88
2018-08-06T09:39:36.905Z,1003.86
2018-08-06T09:40:38.873Z,1003.82
2018-08-06T09:41:36.902Z,1003.82
2018-08-06T09:42:36.951Z,1003.85
2018-08-06T09:43:36.954Z,1003.82
2018-08-06T09:44:36.933Z,1003.85
2018-08-06T09:45:36.929Z,1003.77
2018-08-06T09:46:36.953Z,1003.79
2018-08-06T09:47:36.982Z,1003.78
2018-08-06T09:48:37.023Z,1003.69
2018-08-06T09:49:37.001Z,1003.69
2018-08-06T09:50:36.974Z,1003.67
2018-08-06T09:51:36.981Z,1003.67
2018-08-06T09:52:37.006Z,1003.68
2018-08-06T09:53:36.994Z,1003.67
2018-08-06T09:54:37.006Z,1003.68
2018-08-06T09:55:37.053Z,1003.65
2018-08-06T09:56:37.070Z,1003.69
2018-08-06T09:57:37.132Z,1003.69
2018-08-06T09:58:37.093Z,1003.69
2018-08-06T09:59:37.090Z,1003.70
2018-08-06T10:00:37.117Z,1003.62
2018-08-06T10:01:37.093Z,1003.61
2018-08-06T10:02:37.094Z,1003.62
2018-08-06T10:03:37.085Z,1003.61
2018-08-06T10:04:37.119Z,1003.63
2018-08-06T10:05:37.254Z,1003.64
2018-08-06T10:06:37.271Z,1003.65
2018-08-06T10:07:37.131Z,1003.55
2018-08-06T10:08:37.138Z,1003.58
2018-08-06T10:09:37.145Z,1003.59
2018-08-06T10:10:37.151Z,1003.50
2018-08-06T10:11:37.143Z,1003.49
2018-08-06T10:12:37.197Z,1003.46
2018-08-06T10:13:37.164Z,1003.47
2018-08-06T10:14:37.178Z,1003.48
2018-08-06T10:15:37.187Z,1003.40
2018-08-06T10:16:37.191Z,1003.45
2018-08-06T10:17:37.232Z,1003.51
2018-08-06T10:18:37.202Z,1003.43
2018-08-06T10:19:37.253Z,1003.44
2018-08-06T10:20:37.224Z,1003.42
2018-08-06T10:21:37.250Z,1003.40
2018-08-06T10:22:37.236Z,1003.39
2018-08-06T10:23:37.259Z,1003.42
2018-08-06T10:24:37.360Z,1003.38
2018-08-06T10:25:37.340Z,1003.38
2018-08-06T10:26:39.057Z,1003.36
2018-08-06T10:27:37.284Z,1003.37
2018-08-06T10:28:37.343Z,1003.37
2018-08-06T10:29:37.296Z,1003.34
2018-08-06T10:30:37.396Z,1003.43
2018-08-06T10:31:37.328Z,1003.31
2018-08-06T10:32:46.005Z,1003.29
2018-08-06T10:34:30.779Z,1003.22
2018-08-06T10:35:30.751Z,1003.22
2018-08-06T10:36:30.756Z,1003.26
2018-08-06T10:37:30.778Z,1003.24
2018-08-06T10:38:39.434Z,1003.20
2018-08-06T10:40:24.226Z,1003.16
2018-08-06T10:41:24.195Z,1003.14
2018-08-06T10:42:24.221Z,1003.11
2018-08-06T10:43:24.198Z,1003.14
2018-08-06T10:44:24.213Z,1003.16
2018-08-06T10:45:24.261Z,1003.12
2018-08-06T10:46:24.224Z,1003.17
2018-08-06T10:47:24.232Z,1003.12
2018-08-06T10:48:24.315Z,1003.11
2018-08-06T10:49:24.255Z,1003.12
2018-08-06T10:50:24.290Z,1003.12
2018-08-06T10:51:24.286Z,1003.09
2018-08-06T10:52:24.310Z,1003.09
2018-08-06T10:53:24.295Z,1003.06
2018-08-06T10:54:24.312Z,1003.09
2018-08-06T10:55:24.311Z,1003.09
2018-08-06T10:56:24.340Z,1003.11
2018-08-06T10:57:24.363Z,1003.02
2018-08-06T10:58:24.358Z,1003.05
2018-08-06T10:59:24.377Z,1002.99
2018-08-06T11:00:24.472Z,1003.00
2018-08-06T11:01:24.434Z,1003.00
2018-08-06T11:02:24.376Z,1003.02
2018-08-06T11:03:24.383Z,1003.00
2018-08-06T11:04:24.387Z,1002.98
2018-08-06T11:05:24.408Z,1002.99
2018-08-06T11:06:24.537Z,1002.97
2018-08-06T11:07:24.438Z,1002.94
2018-08-06T11:08:24.437Z,1002.95
2018-08-06T11:09:24.442Z,1002.96
2018-08-06T11:10:26.262Z,1002.90
2018-08-06T11:11:24.457Z,1002.90
2018-08-06T11:12:24.458Z,1002.88
2018-08-06T11:13:24.487Z,1002.91
2018-08-06T11:14:24.547Z,1002.89
2018-08-06T11:15:24.501Z,1002.88
2018-08-06T11:16:24.532Z,1002.89
2018-08-06T11:17:24.510Z,1002.86
2018-08-06T11:18:24.523Z,1002.86
2018-08-06T11:19:24.536Z,1002.90
2018-08-06T11:20:24.580Z,1002.86
2018-08-06T11:21:33.403Z,1002.84
2018-08-06T11:23:18.002Z,1002.82
2018-08-06T11:24:18.000Z,1002.82
2018-08-06T11:25:18.018Z,1002.80
2018-08-06T11:26:18.026Z,1002.81
2018-08-06T11:27:18.039Z,1002.79
2018-08-06T11:28:18.034Z,1002.81
2018-08-06T11:29:18.053Z,1002.78
2018-08-06T11:30:18.059Z,1002.79
2018-08-06T11:31:18.088Z,1002.76
2018-08-06T11:32:18.069Z,1002.75
2018-08-06T11:33:18.109Z,1002.75
2018-08-06T11:34:18.110Z,1002.70
2018-08-06T11:35:18.131Z,1002.69
2018-08-06T11:36:18.141Z,1002.65
2018-08-06T11:37:18.135Z,1002.70
2018-08-06T11:38:18.158Z,1002.67
2018-08-06T11:39:18.159Z,1002.65
2018-08-06T11:40:18.140Z,1002.67
2018-08-06T11:41:18.172Z,1002.62
2018-08-06T11:42:18.196Z,1002.66
2018-08-06T11:43:18.195Z,1002.60
2018-08-06T11:44:18.183Z,1002.61
2018-08-06T11:45:18.192Z,1002.62
2018-08-06T11:46:21.018Z,1002.59
2018-08-06T11:47:18.215Z,1002.54
2018-08-06T11:48:18.265Z,1002.57
2018-08-06T11:49:18.226Z,1002.52
2018-08-06T11:50:18.280Z,1002.53
2018-08-06T11:51:18.282Z,1002.53
2018-08-06T11:52:18.258Z,1002.53
2018-08-06T11:53:18.311Z,1002.51
2018-08-06T11:54:20.060Z,1002.52
2018-08-06T11:55:20.022Z,1002.46
2018-08-06T11:56:18.299Z,1002.49
2018-08-06T11:57:18.308Z,1002.47
2018-08-06T11:58:18.325Z,1002.46
2018-08-06T11:59:18.324Z,1002.48
2018-08-06T12:00:18.358Z,1002.46
2018-08-06T12:01:18.395Z,1002.42
2018-08-06T12:02:18.395Z,1002.46
2018-08-06T12:03:18.395Z,1002.45
2018-08-06T12:04:18.380Z,1002.43
2018-08-06T12:05:18.412Z,1002.39
2018-08-06T12:06:18.423Z,1002.38
2018-08-06T12:07:18.466Z,1002.35
2018-08-06T12:08:18.419Z,1002.33
2018-08-06T12:09:18.446Z,1002.31
2018-08-06T12:10:18.462Z,1002.26
2018-08-06T12:11:18.446Z,1002.28
2018-08-06T12:12:18.473Z,1002.26
2018-08-06T12:13:18.492Z,1002.24
2018-08-06T12:14:20.054Z,1002.18
2018-08-06T12:15:18.533Z,1002.14
2018-08-06T12:16:18.493Z,1002.15
2018-08-06T12:17:18.527Z,1002.18
2018-08-06T12:18:18.543Z,1002.11
2018-08-06T12:19:18.527Z,1002.10
2018-08-06T12:20:18.585Z,1002.10
2018-08-06T12:21:18.567Z,1002.15
2018-08-06T12:22:18.596Z,1002.12
2018-08-06T12:23:18.568Z,1002.10
2018-08-06T12:24:18.584Z,1002.10
2018-08-06T12:25:18.610Z,1002.11
2018-08-06T12:26:18.637Z,1002.07
2018-08-06T12:27:18.658Z,1002.06
2018-08-06T12:28:18.622Z,1002.04
2018-08-06T12:29:18.624Z,1002.04
2018-08-06T12:30:18.640Z,1002.07
2018-08-06T12:31:18.681Z,1002.05
2018-08-06T12:32:18.659Z,1002.04
2018-08-06T12:33:18.726Z,1002.09
2018-08-06T12:34:18.676Z,1002.08
2018-08-06T12:35:18.694Z,1002.05
2018-08-06T12:36:18.694Z,1002.04
2018-08-06T12:37:18.715Z,1002.00
2018-08-06T12:38:18.794Z,1002.06
2018-08-06T12:39:18.747Z,1002.03
2018-08-06T12:40:18.752Z,1002.00
2018-08-06T12:41:18.778Z,1002.03
2018-08-06T12:42:18.793Z,1001.99
2018-08-06T12:43:18.775Z,1001.99
2018-08-06T12:44:18.776Z,1002.00
2018-08-06T12:45:18.786Z,1002.01
2018-08-06T12:46:18.860Z,1001.99
2018-08-06T12:47:18.819Z,1002.00
2018-08-06T12:48:18.897Z,1002.02
2018-08-06T12:49:18.862Z,1001.93
2018-08-06T12:50:18.843Z,1001.92
2018-08-06T12:51:18.854Z,1001.91
2018-08-06T12:52:18.856Z,1001.87
2018-08-06T12:53:18.873Z,1001.87
2018-08-06T12:54:18.932Z,1001.88
2018-08-06T12:55:18.884Z,1001.89
2018-08-06T12:56:18.904Z,1001.83
2018-08-06T12:57:18.921Z,1001.82
2018-08-06T12:58:18.918Z,1001.83
2018-08-06T12:59:18.988Z,1001.79
2018-08-06T13:00:18.991Z,1001.84
2018-08-06T13:01:18.978Z,1001.79
2018-08-06T13:02:19.020Z,1001.79
2018-08-06T13:03:19.011Z,1001.79
2018-08-06T13:04:18.993Z,1001.77
2018-08-06T13:05:19.001Z,1001.72
2018-08-06T13:06:19.249Z,1001.71
2018-08-06T13:07:19.015Z,1001.72
2018-08-06T13:08:20.560Z,1001.71
2018-08-06T13:09:19.076Z,1001.66
2018-08-06T13:10:27.703Z,1001.72
2018-08-06T13:12:22.550Z,1001.68
2018-08-06T13:13:12.489Z,1001.61
2018-08-06T13:14:12.518Z,1001.58
2018-08-06T13:15:12.487Z,1001.60
2018-08-06T13:16:12.517Z,1001.60
2018-08-06T13:17:12.537Z,1001.62
2018-08-06T13:18:12.609Z,1001.60
2018-08-06T13:19:12.544Z,1001.62
2018-08-06T13:20:12.557Z,1001.54
2018-08-06T13:21:12.564Z,1001.55
2018-08-06T13:23:33.724Z,1001.53
2018-08-06T13:24:33.717Z,1001.52
2018-08-06T13:25:33.692Z,1001.45
2018-08-06T13:26:33.705Z,1001.44
2018-08-06T13:27:33.687Z,1001.45
2018-08-06T13:28:33.727Z,1001.44
2018-08-06T13:29:33.741Z,1001.40
2018-08-06T13:30:33.743Z,1001.38
2018-08-06T13:31:33.734Z,1001.38
2018-08-06T13:32:33.771Z,1001.38
2018-08-06T13:33:35.730Z,1001.38
2018-08-06T13:34:33.763Z,1001.35
2018-08-06T13:35:33.841Z,1001.31
2018-08-06T13:36:33.823Z,1001.33
2018-08-06T13:37:33.836Z,1001.32
2018-08-06T13:38:33.808Z,1001.33
2018-08-06T13:39:33.840Z,1001.33
2018-08-06T13:40:33.821Z,1001.29
2018-08-06T13:41:33.851Z,1001.30
2018-08-06T13:42:33.839Z,1001.26
2018-08-06T13:43:42.552Z,1001.25
2018-08-06T13:45:27.315Z,1001.22
2018-08-06T13:46:27.295Z,1001.20
2018-08-06T13:47:27.309Z,1001.23
2018-08-06T13:48:35.969Z,1001.25
2018-08-06T13:50:20.757Z,1001.21
2018-08-06T13:51:20.781Z,1001.19
2018-08-06T13:52:20.811Z,1001.20
2018-08-06T13:53:22.336Z,1001.14
2018-08-06T13:54:20.789Z,1001.14
2018-08-06T13:55:20.773Z,1001.11
2018-08-06T13:56:20.796Z,1001.10
2018-08-06T13:57:20.820Z,1001.09
2018-08-06T13:58:20.860Z,1001.10
2018-08-06T13:59:20.835Z,1001.06
2018-08-06T14:00:29.495Z,1001.02
2018-08-06T14:02:15.265Z,1001.01
2018-08-06T14:03:15.248Z,1001.03
2018-08-06T14:04:15.264Z,1001.03
2018-08-06T14:05:15.304Z,1001.01
2018-08-06T14:06:15.307Z,1001.01
2018-08-06T14:07:15.309Z,1001.01
2018-08-06T14:08:15.318Z,1000.99
2018-08-06T14:09:15.340Z,1000.98
2018-08-06T14:10:15.358Z,1001.00
2018-08-06T14:11:15.360Z,1000.93
2018-08-06T14:12:15.354Z,1000.94
2018-08-06T14:13:15.356Z,1000.91
2018-08-06T14:14:15.364Z,1000.92
2018-08-06T14:15:15.394Z,1000.94
2018-08-06T14:16:15.406Z,1000.95
2018-08-06T14:17:15.394Z,1000.83
2018-08-06T14:18:15.459Z,1000.84
2018-08-06T14:19:15.431Z,1000.88
2018-08-06T14:20:15.468Z,1000.87
2018-08-06T14:21:15.457Z,1000.85
2018-08-06T14:22:15.477Z,1000.84
2018-08-06T14:23:15.488Z,1000.83
2018-08-06T14:24:15.522Z,1000.82
2018-08-06T14:25:15.497Z,1000.82
2018-08-06T14:26:15.530Z,1000.80
2018-08-06T14:27:15.504Z,1000.81
2018-08-06T14:28:15.552Z,1000.78
2018-08-06T14:29:17.332Z,1000.73
2018-08-06T14:30:15.555Z,1000.74
2018-08-06T14:31:15.546Z,1000.72
2018-08-06T14:32:15.561Z,1000.75
2018-08-06T14:33:15.583Z,1000.73
2018-08-06T14:34:15.657Z,1000.72
2018-08-06T14:35:15.612Z,1000.76
2018-08-06T14:36:15.605Z,1000.76
2018-08-06T14:37:15.645Z,1000.75
2018-08-06T14:38:15.646Z,1000.70
2018-08-06T14:39:15.649Z,1000.69
2018-08-06T14:40:15.686Z,1000.66
2018-08-06T14:41:15.691Z,1000.67
2018-08-06T14:42:15.695Z,1000.64
2018-08-06T14:43:15.701Z,1000.60
2018-08-06T14:44:15.702Z,1000.56
2018-08-06T14:45:15.712Z,1000.58
2018-08-06T14:46:16.320Z,1000.54
2018-08-06T14:47:15.770Z,1000.52
2018-08-06T14:48:15.762Z,1000.50
2018-08-06T14:49:15.757Z,1000.52
2018-08-06T14:50:15.766Z,1000.54
2018-08-06T14:51:15.776Z,1000.48
2018-08-06T14:52:15.781Z,1000.48
2018-08-06T14:53:15.806Z,1000.50
2018-08-06T14:54:15.813Z,1000.49
2018-08-06T14:55:15.818Z,1000.44
2018-08-06T14:56:15.845Z,1000.39
2018-08-06T14:57:15.839Z,1000.40
2018-08-06T14:58:15.862Z,1000.39
2018-08-06T14:59:15.863Z,1000.32
2018-08-06T15:00:15.875Z,1000.34
2018-08-06T15:01:17.814Z,1000.35
2018-08-06T15:02:15.948Z,1000.34
2018-08-06T15:03:15.918Z,1000.34
2018-08-06T15:04:15.917Z,1000.38
2018-08-06T15:05:15.937Z,1000.38
2018-08-06T15:06:15.966Z,1000.37
2018-08-06T15:07:15.964Z,1000.39
2018-08-06T15:08:16.019Z,1000.37
2018-08-06T15:09:16.040Z,1000.37
2018-08-06T15:10:15.983Z,1000.32
2018-08-06T15:11:16.014Z,1000.32
2018-08-06T15:12:16.049Z,1000.29
2018-08-06T15:13:16.035Z,1000.27
2018-08-06T15:14:16.023Z,1000.30
2018-08-06T15:15:16.132Z,1000.35
2018-08-06T15:16:16.085Z,1000.31
2018-08-06T15:17:16.062Z,1000.32
2018-08-06T15:18:16.084Z,1000.27
2018-08-06T15:19:16.084Z,1000.29
2018-08-06T15:20:16.109Z,1000.27
2018-08-06T15:21:16.127Z,1000.32
2018-08-06T15:22:16.182Z,1000.27
2018-08-06T15:23:16.168Z,1000.28
2018-08-06T15:24:16.137Z,1000.28
2018-08-06T15:25:16.178Z,1000.27
2018-08-06T15:26:16.168Z,1000.23
2018-08-06T15:27:16.219Z,1000.23
2018-08-06T15:28:16.201Z,1000.24
2018-08-06T15:29:16.199Z,1000.23
2018-08-06T15:30:16.240Z,1000.26
2018-08-06T15:31:16.258Z,1000.27
2018-08-06T15:32:16.254Z,1000.21
2018-08-06T15:33:16.245Z,1000.24
2018-08-06T15:34:16.256Z,1000.21
2018-08-06T15:35:16.256Z,1000.18
2018-08-06T15:36:16.273Z,1000.18
2018-08-06T15:37:16.358Z,1000.22
2018-08-06T15:38:16.345Z,1000.17
2018-08-06T15:39:16.312Z,1000.14
2018-08-06T15:40:16.334Z,1000.13
2018-08-06T15:41:16.371Z,1000.15